createdAt,value
2023-02-18T00:04:55.399Z,212122.00
2023-02-18T00:10:57.821Z,212039.00
2023-02-18T00:17:00.161Z,212017.00
2023-02-18T00:23:03.580Z,211977.00
2023-02-18T00:29:05.687Z,216026.00
2023-02-18T00:35:08.504Z,215999.00
2023-02-18T00:41:10.877Z,216007.00
2023-02-18T00:47:13.529Z,211997.00
2023-02-18T00:53:15.897Z,212045.00
2023-02-18T00:59:18.473Z,212086.00
2023-02-18T01:05:21.946Z,212195.00
2023-02-18T01:11:24.397Z,212296.00
2023-02-18T01:17:26.937Z,212357.00
2023-02-18T01:23:29.855Z,212365.00
2023-02-18T01:29:31.907Z,212399.00
2023-02-18T01:35:34.598Z,212399.00
2023-02-18T01:41:36.701Z,212399.00
2023-02-18T01:47:39.018Z,212357.00
2023-02-18T01:53:59.295Z,212310.00
2023-02-18T02:00:12.420Z,212284.00
2023-02-18T02:06:20.637Z,212268.00
2023-02-18T02:13:01.100Z,212262.00
2023-02-18T02:19:27.805Z,212256.00
2023-02-18T02:26:22.427Z,212262.00
2023-02-18T02:32:45.736Z,212242.00
2023-02-18T02:39:16.461Z,212215.00
2023-02-18T02:45:29.448Z,212242.00
2023-02-18T02:51:43.280Z,212276.00
2023-02-18T02:57:51.190Z,212316.00
2023-02-18T03:04:17.741Z,212468.00
2023-02-18T03:10:23.830Z,212541.00
2023-02-18T03:16:27.798Z,212577.00
2023-02-18T03:22:35.735Z,212596.00
2023-02-18T03:28:39.052Z,212596.00
2023-02-18T03:34:46.157Z,212646.00
2023-02-18T03:40:48.933Z,212700.00
2023-02-18T03:46:51.246Z,212741.00
2023-02-18T03:52:54.771Z,212760.00
2023-02-18T03:58:57.010Z,212741.00
2023-02-18T04:04:59.250Z,212780.00
2023-02-18T04:11:02.276Z,212836.00
2023-02-18T04:17:04.585Z,212822.00
2023-02-18T04:23:06.887Z,212842.00
2023-02-18T04:29:09.036Z,212808.00
2023-02-18T04:35:11.235Z,212808.00
2023-02-18T04:41:13.631Z,212800.00
2023-02-18T04:47:16.049Z,212836.00
2023-02-18T04:53:18.313Z,212869.00
2023-02-18T04:59:20.649Z,212869.00
2023-02-18T05:05:22.933Z,212883.00
2023-02-18T05:11:25.305Z,212869.00
2023-02-18T05:17:27.506Z,212856.00
2023-02-18T05:23:29.766Z,212816.00
2023-02-18T05:29:31.958Z,212848.00
2023-02-18T05:35:34.165Z,212834.00
2023-02-18T05:41:36.399Z,212856.00
2023-02-18T05:47:38.870Z,212869.00
2023-02-18T05:53:41.653Z,212891.00
2023-02-18T05:59:43.808Z,212925.00
2023-02-18T06:05:45.966Z,212975.00
2023-02-18T06:11:48.587Z,213025.00
2023-02-18T06:17:51.345Z,213095.00
2023-02-18T06:23:53.301Z,213170.00
2023-02-18T06:29:55.599Z,213272.00
2023-02-18T06:36:01.798Z,213314.00
2023-02-18T06:42:04.332Z,213404.00
2023-02-18T06:48:06.606Z,213509.00
2023-02-18T06:54:08.749Z,213611.00
2023-02-18T07:00:11.245Z,213720.00
2023-02-18T07:06:13.413Z,213830.00
2023-02-18T07:12:19.939Z,213894.00
2023-02-18T07:18:22.450Z,213969.00
2023-02-18T07:24:24.802Z,214099.00
2023-02-18T07:30:26.968Z,214113.00
2023-02-18T07:36:29.574Z,214169.00
2023-02-18T07:42:32.418Z,214185.00
2023-02-18T07:48:34.674Z,214244.00
2023-02-18T07:54:36.917Z,214280.00
2023-02-18T08:00:39.953Z,214296.00
2023-02-18T08:06:46.325Z,214341.00
2023-02-18T08:12:48.470Z,214321.00
2023-02-18T08:18:52.045Z,214349.00
2023-02-18T08:24:57.860Z,214424.00
2023-02-18T08:31:00.475Z,214515.00
2023-02-18T08:37:03.237Z,214584.00
2023-02-18T08:43:05.450Z,214675.00
2023-02-18T08:49:08.309Z,214731.00
2023-02-18T08:55:10.995Z,214808.00
2023-02-18T09:01:14.120Z,214897.00
2023-02-18T09:07:16.388Z,214966.00
2023-02-18T09:13:21.784Z,215044.00
2023-02-18T09:19:23.999Z,215072.00
2023-02-18T09:25:26.456Z,215112.00
2023-02-18T09:31:29.398Z,215154.00
2023-02-18T09:37:32.010Z,215154.00
2023-02-18T09:43:38.548Z,215225.00
2023-02-18T09:49:44.224Z,215253.00
2023-02-18T09:55:46.790Z,215329.00
2023-02-18T10:01:55.107Z,215427.00
2023-02-18T10:08:03.442Z,215636.00
2023-02-18T10:14:11.926Z,215777.00
2023-02-18T10:20:20.765Z,215888.00
2023-02-18T10:26:23.347Z,215929.00
2023-02-18T10:32:36.418Z,216015.00
2023-02-18T10:39:03.320Z,216043.00
2023-02-18T10:45:16.699Z,216147.00
2023-02-18T10:51:31.297Z,216304.00
2023-02-18T10:57:34.387Z,216274.00
2023-02-18T11:03:51.569Z,216288.00
2023-02-18T11:09:57.060Z,216359.00
2023-02-18T11:16:05.853Z,216420.00
2023-02-18T11:22:21.792Z,216485.00
2023-02-18T11:28:26.835Z,216472.00
2023-02-18T11:34:33.158Z,216442.00
2023-02-18T11:40:36.915Z,216529.00
2023-02-18T11:46:39.362Z,216521.00
2023-02-18T11:52:44.578Z,216485.00
2023-02-18T11:58:48.935Z,216472.00
2023-02-18T12:04:56.755Z,216551.00
2023-02-18T12:11:08.274Z,216563.00
2023-02-18T12:17:10.731Z,216613.00
2023-02-18T12:23:39.426Z,216747.00
2023-02-18T12:29:54.209Z,216854.00
2023-02-18T12:35:56.599Z,216928.00
2023-02-18T12:42:20.688Z,216956.00
2023-02-18T12:48:39.343Z,217057.00
2023-02-18T12:54:44.770Z,217151.00
2023-02-18T13:01:08.588Z,217093.00
2023-02-18T13:07:23.820Z,217057.00
2023-02-18T13:13:37.626Z,217176.00
2023-02-18T13:19:53.159Z,217461.00
2023-02-18T13:26:01.691Z,217979.00
2023-02-18T13:32:04.266Z,218682.00
2023-02-18T13:38:25.091Z,218417.00
2023-02-18T13:44:27.213Z,218222.00
2023-02-18T13:50:41.083Z,218124.00
2023-02-18T13:57:14.363Z,217995.00
2023-02-18T14:03:34.503Z,217845.00
2023-02-18T14:09:39.501Z,217845.00
2023-02-18T14:15:51.172Z,217752.00
2023-02-18T14:22:25.304Z,217716.00
2023-02-18T14:28:39.718Z,217760.00
2023-02-18T14:34:52.282Z,217767.00
2023-02-18T14:41:26.373Z,217732.00
2023-02-18T14:47:46.982Z,217661.00
2023-02-18T14:53:53.110Z,217590.00
2023-02-18T15:00:00.066Z,217510.00
2023-02-18T15:06:02.294Z,217425.00
2023-02-18T15:12:09.904Z,217327.00
2023-02-18T15:18:38.327Z,217291.00
2023-02-18T15:24:40.680Z,217178.00
2023-02-18T15:30:45.727Z,217057.00
2023-02-18T15:36:51.771Z,216994.00
2023-02-18T15:42:58.273Z,216874.00
2023-02-18T15:49:01.799Z,216846.00
2023-02-18T15:55:12.303Z,216824.00
2023-02-18T16:01:28.065Z,216703.00
2023-02-18T16:07:49.763Z,216705.00
2023-02-18T16:13:51.981Z,216661.00
2023-02-18T16:20:24.017Z,216551.00
2023-02-18T16:26:47.020Z,216485.00
2023-02-18T16:32:49.636Z,216472.00
2023-02-18T16:38:52.354Z,216501.00
2023-02-18T16:44:54.993Z,216501.00
2023-02-18T16:51:00.067Z,216458.00
2023-02-18T16:57:02.352Z,216353.00
2023-02-18T17:03:05.906Z,216302.00
2023-02-18T17:09:22.766Z,216224.00
2023-02-18T17:15:34.976Z,216183.00
2023-02-18T17:21:37.410Z,216163.00
2023-02-18T17:27:39.613Z,216125.00
2023-02-18T17:33:43.170Z,216015.00
2023-02-18T17:39:45.480Z,215945.00
2023-02-18T17:45:51.536Z,215929.00
2023-02-18T17:51:53.988Z,215866.00
2023-02-18T17:57:56.763Z,215764.00
2023-02-18T18:03:59.117Z,215728.00
2023-02-18T18:10:01.560Z,215678.00
2023-02-18T18:16:04.092Z,215642.00
2023-02-18T18:22:08.471Z,215623.00
2023-02-18T18:28:10.837Z,215636.00
2023-02-18T18:34:16.469Z,215628.00
2023-02-18T18:40:20.460Z,215607.00
2023-02-18T18:46:22.932Z,215582.00
2023-02-18T18:52:25.188Z,215463.00
2023-02-18T18:58:28.088Z,215419.00
2023-02-18T19:04:30.409Z,215349.00
2023-02-18T19:10:36.057Z,215295.00
2023-02-18T19:16:43.036Z,215253.00
2023-02-18T19:22:45.414Z,215239.00
2023-02-18T19:28:47.785Z,215239.00
2023-02-18T19:34:50.121Z,215239.00
2023-02-18T19:40:54.265Z,215196.00
2023-02-18T19:46:56.743Z,215182.00
2023-02-18T19:52:59.624Z,215132.00
2023-02-18T19:59:05.196Z,215092.00
2023-02-18T20:05:09.111Z,215038.00
2023-02-18T20:11:11.555Z,214994.00
2023-02-18T20:17:14.092Z,214980.00
2023-02-18T20:23:16.648Z,214968.00
2023-02-18T20:29:22.086Z,214980.00
2023-02-18T20:35:24.449Z,215066.00
2023-02-18T20:41:26.739Z,215154.00
2023-02-18T20:47:28.832Z,215225.00
2023-02-18T20:53:36.499Z,215253.00
2023-02-18T20:59:38.750Z,215253.00
2023-02-18T21:05:40.941Z,215217.00
2023-02-18T21:11:44.481Z,215231.00
2023-02-18T21:17:46.813Z,215140.00
2023-02-18T21:23:49.014Z,214938.00
2023-02-18T21:29:51.367Z,214883.00
2023-02-18T21:35:53.944Z,214711.00
2023-02-18T21:41:57.447Z,214570.00
2023-02-18T21:48:19.666Z,214496.00
2023-02-18T21:54:37.135Z,214446.00
2023-02-18T22:00:39.318Z,214349.00
2023-02-18T22:06:41.957Z,214296.00
2023-02-18T22:12:44.006Z,214260.00
2023-02-18T22:18:46.113Z,214169.00
2023-02-18T22:24:50.718Z,214113.00
2023-02-18T22:30:52.763Z,214191.00
2023-02-18T22:36:55.058Z,214341.00
2023-02-18T22:42:57.351Z,214454.00
2023-02-18T22:49:00.180Z,214559.00
2023-02-18T22:55:02.192Z,214753.00
2023-02-18T23:01:06.334Z,214925.00
2023-02-18T23:07:08.538Z,214940.00
2023-02-18T23:13:10.664Z,215022.00
2023-02-18T23:19:12.852Z,215106.00
2023-02-18T23:25:16.380Z,215112.00
2023-02-18T23:31:25.573Z,215098.00
2023-02-18T23:37:46.489Z,215072.00
2023-02-18T23:43:49.477Z,215030.00
2023-02-18T23:49:51.768Z,214966.00
2023-02-18T23:56:07.790Z,214875.00
